sensor_id;sensor_type;location;lat;lon;timestamp;P1;P2;P0
46381;PMS5003;66809;52.974;-2.514;2023-04-15T00:01:43;20.15;18.816666666666666;
46381;PMS5003;66809;52.974;-2.514;2023-04-15T00:03:44;19.9;18.583333333333332;
46381;PMS5003;66809;52.974;-2.514;2023-04-15T00:05:43;19.533333333333335;18.216666666666665;
46381;PMS5003;66809;52.974;-2.514;2023-04-15T00:07:43;19.25;17.933333333333334;
46381;PMS5003;66809;52.974;-2.514;2023-04-15T00:09:43;19.033333333333335;17.766666666666666;
46381;PMS5003;66809;52.974;-2.514;2023-04-15T00:11:43;18.933333333333334;17.566666666666666;
46381;PMS5003;66809;52.974;-2.514;2023-04-15T00:13:43;18.6;17.3;
46381;PMS5003;66809;52.974;-2.514;2023-04-15T00:15:43;18.35;17.066666666666666;
46381;PMS5003;66809;52.974;-2.514;2023-04-15T00:17:43;18.116666666666667;16.833333333333332;
46381;PMS5003;66809;52.974;-2.514;2023-04-15T00:19:43;17.833333333333332;16.616666666666667;
46381;PMS5003;66809;52.974;-2.514;2023-04-15T00:21:43;17.45;16.333333333333332;
46381;PMS5003;66809;52.974;-2.514;2023-04-15T00:23:43;17.316666666666666;16.2;
46381;PMS5003;66809;52.974;-2.514;2023-04-15T00:25:44;17.0;15.966666666666667;
46381;PMS5003;66809;52.974;-2.514;2023-04-15T00:27:43;16.783333333333335;15.733333333333333;
46381;PMS5003;66809;52.974;-2.514;2023-04-15T00:29:43;16.666666666666668;15.616666666666667;
46381;PMS5003;66809;52.974;-2.514;2023-04-15T00:31:43;16.366666666666667;15.416666666666666;
46381;PMS5003;66809;52.974;-2.514;2023-04-15T00:33:43;16.4;15.483333333333333;
46381;PMS5003;66809;52.974;-2.514;2023-04-15T00:35:44;16.3;15.383333333333333;
46381;PMS5003;66809;52.974;-2.514;2023-04-15T00:37:43;15.966666666666667;15.066666666666666;
46381;PMS5003;66809;52.974;-2.514;2023-04-15T00:39:43;15.716666666666667;14.816666666666666;
46381;PMS5003;66809;52.974;-2.514;2023-04-15T00:41:44;15.75;14.866666666666667;
46381;PMS5003;66809;52.974;-2.514;2023-04-15T00:43:43;15.6;14.783333333333333;
46381;PMS5003;66809;52.974;-2.514;2023-04-15T00:45:44;15.516666666666667;14.65;
46381;PMS5003;66809;52.974;-2.514;2023-04-15T00:47:44;15.466666666666667;14.55;
46381;PMS5003;66809;52.974;-2.514;2023-04-15T00:49:43;15.333333333333334;14.466666666666667;
46381;PMS5003;66809;52.974;-2.514;2023-04-15T00:51:43;15.233333333333333;14.35;
46381;PMS5003;66809;52.974;-2.514;2023-04-15T00:53:44;14.983333333333333;14.133333333333333;
46381;PMS5003;66809;52.974;-2.514;2023-04-15T00:55:43;14.916666666666666;14.083333333333334;
46381;PMS5003;66809;52.974;-2.514;2023-04-15T00:57:43;14.833333333333334;14.033333333333333;
46381;PMS5003;66809;52.974;-2.514;2023-04-15T00:59:43;14.883333333333333;14.066666666666666;
46381;PMS5003;66809;52.974;-2.514;2023-04-15T01:01:43;14.983333333333333;14.1;
46381;PMS5003;66809;52.974;-2.514;2023-04-15T01:03:43;14.966666666666667;14.116666666666667;
46381;PMS5003;66809;52.974;-2.514;2023-04-15T01:05:43;14.966666666666667;14.133333333333333;
46381;PMS5003;66809;52.974;-2.514;2023-04-15T01:07:43;14.916666666666666;14.066666666666666;
46381;PMS5003;66809;52.974;-2.514;2023-04-15T01:09:43;14.916666666666666;14.066666666666666;
46381;PMS5003;66809;52.974;-2.514;2023-04-15T01:11:43;15.1;14.283333333333333;
46381;PMS5003;66809;52.974;-2.514;2023-04-15T01:13:43;15.2;14.416666666666666;
46381;PMS5003;66809;52.974;-2.514;2023-04-15T01:15:43;15.566666666666666;14.716666666666667;
46381;PMS5003;66809;52.974;-2.514;2023-04-15T01:17:44;15.8;14.966666666666667;
46381;PMS5003;66809;52.974;-2.514;2023-04-15T01:19:43;16.066666666666666;15.216666666666667;
46381;PMS5003;66809;52.974;-2.514;2023-04-15T01:21:44;16.183333333333334;15.3;
46381;PMS5003;66809;52.974;-2.514;2023-04-15T01:23:44;16.366666666666667;15.466666666666667;
46381;PMS5003;66809;52.974;-2.514;2023-04-15T01:25:43;16.616666666666667;15.65;
46381;PMS5003;66809;52.974;-2.514;2023-04-15T01:27:43;16.783333333333335;15.85;
46381;PMS5003;66809;52.974;-2.514;2023-04-15T01:29:43;16.866666666666667;15.9;
46381;PMS5003;66809;52.974;-2.514;2023-04-15T01:31:48;16.983333333333334;16.033333333333335;
46381;PMS5003;66809;52.974;-2.514;2023-04-15T01:33:44;16.966666666666665;16.033333333333335;
46381;PMS5003;66809;52.974;-2.514;2023-04-15T01:35:43;17.133333333333333;16.2;
46381;PMS5003;66809;52.974;-2.514;2023-04-15T01:37:43;17.5;16.533333333333335;
46381;PMS5003;66809;52.974;-2.514;2023-04-15T01:39:43;17.65;16.633333333333333;
46381;PMS5003;66809;52.974;-2.514;2023-04-15T01:41:43;17.683333333333334;16.633333333333333;
46381;PMS5003;66809;52.974;-2.514;2023-04-15T01:43:43;17.716666666666665;16.65;
46381;PMS5003;66809;52.974;-2.514;2023-04-15T01:45:44;17.683333333333334;16.65;
46381;PMS5003;66809;52.974;-2.514;2023-04-15T01:47:43;17.666666666666668;16.65;
46381;PMS5003;66809;52.974;-2.514;2023-04-15T01:49:43;17.583333333333332;16.566666666666666;
46381;PMS5003;66809;52.974;-2.514;2023-04-15T01:51:43;17.5;16.483333333333334;
46381;PMS5003;66809;52.974;-2.514;2023-04-15T01:53:43;17.516666666666666;16.5;
46381;PMS5003;66809;52.974;-2.514;2023-04-15T01:55:43;17.4;16.416666666666668;
46381;PMS5003;66809;52.974;-2.514;2023-04-15T01:57:43;17.45;16.466666666666665;
46381;PMS5003;66809;52.974;-2.514;2023-04-15T01:59:43;17.3;16.333333333333332;
46381;PMS5003;66809;52.974;-2.514;2023-04-15T02:01:44;17.116666666666667;16.183333333333334;
46381;PMS5003;66809;52.974;-2.514;2023-04-15T02:03:43;16.883333333333333;15.933333333333334;
46381;PMS5003;66809;52.974;-2.514;2023-04-15T02:05:43;16.766666666666666;15.816666666666666;
46381;PMS5003;66809;52.974;-2.514;2023-04-15T02:07:43;16.616666666666667;15.716666666666667;
46381;PMS5003;66809;52.974;-2.514;2023-04-15T02:09:43;16.516666666666666;15.616666666666667;
46381;PMS5003;66809;52.974;-2.514;2023-04-15T02:11:44;16.15;15.316666666666666;
46381;PMS5003;66809;52.974;-2.514;2023-04-15T02:13:43;16.033333333333335;15.2;
46381;PMS5003;66809;52.974;-2.514;2023-04-15T02:15:45;15.7;14.933333333333334;
46381;PMS5003;66809;52.974;-2.514;2023-04-15T02:17:43;15.433333333333334;14.666666666666666;
46381;PMS5003;66809;52.974;-2.514;2023-04-15T02:19:43;15.25;14.483333333333333;
46381;PMS5003;66809;52.974;-2.514;2023-04-15T02:21:43;15.233333333333333;14.483333333333333;
46381;PMS5003;66809;52.974;-2.514;2023-04-15T02:23:43;15.116666666666667;14.4;
46381;PMS5003;66809;52.974;-2.514;2023-04-15T02:25:43;15.066666666666666;14.383333333333333;
46381;PMS5003;66809;52.974;-2.514;2023-04-15T02:27:43;15.0;14.3;
46381;PMS5003;66809;52.974;-2.514;2023-04-15T02:29:43;14.9;14.25;
46381;PMS5003;66809;52.974;-2.514;2023-04-15T02:31:43;14.866666666666667;14.233333333333333;
46381;PMS5003;66809;52.974;-2.514;2023-04-15T02:33:43;14.933333333333334;14.266666666666667;
46381;PMS5003;66809;52.974;-2.514;2023-04-15T02:35:43;14.883333333333333;14.2;
46381;PMS5003;66809;52.974;-2.514;2023-04-15T02:37:43;14.616666666666667;13.95;
46381;PMS5003;66809;52.974;-2.514;2023-04-15T02:39:43;14.483333333333333;13.85;
46381;PMS5003;66809;52.974;-2.514;2023-04-15T02:41:43;14.433333333333334;13.816666666666666;
46381;PMS5003;66809;52.974;-2.514;2023-04-15T02:43:44;14.383333333333333;13.75;
46381;PMS5003;66809;52.974;-2.514;2023-04-15T02:45:43;14.316666666666666;13.683333333333334;
46381;PMS5003;66809;52.974;-2.514;2023-04-15T02:47:43;14.266666666666667;13.65;
46381;PMS5003;66809;52.974;-2.514;2023-04-15T02:49:43;14.183333333333334;13.566666666666666;
46381;PMS5003;66809;52.974;-2.514;2023-04-15T02:51:43;14.216666666666667;13.583333333333334;
46381;PMS5003;66809;52.974;-2.514;2023-04-15T02:53:45;14.183333333333334;13.583333333333334;
46381;PMS5003;66809;52.974;-2.514;2023-04-15T02:55:43;14.233333333333333;13.6;
46381;PMS5003;66809;52.974;-2.514;2023-04-15T02:57:43;14.233333333333333;13.583333333333334;
46381;PMS5003;66809;52.974;-2.514;2023-04-15T02:59:43;14.5;13.833333333333334;
46381;PMS5003;66809;52.974;-2.514;2023-04-15T03:01:43;14.583333333333334;13.933333333333334;
46381;PMS5003;66809;52.974;-2.514;2023-04-15T03:03:43;14.8;14.133333333333333;
46381;PMS5003;66809;52.974;-2.514;2023-04-15T03:05:43;14.85;14.166666666666666;
46381;PMS5003;66809;52.974;-2.514;2023-04-15T03:07:43;14.9;14.216666666666667;
46381;PMS5003;66809;52.974;-2.514;2023-04-15T03:09:43;14.933333333333334;14.233333333333333;
46381;PMS5003;66809;52.974;-2.514;2023-04-15T03:11:43;15.05;14.35;
46381;PMS5003;66809;52.974;-2.514;2023-04-15T03:13:44;15.166666666666666;14.433333333333334;
46381;PMS5003;66809;52.974;-2.514;2023-04-15T03:15:45;15.333333333333334;14.6;
46381;PMS5003;66809;52.974;-2.514;2023-04-15T03:17:44;15.583333333333334;14.85;
46381;PMS5003;66809;52.974;-2.514;2023-04-15T03:19:43;15.583333333333334;14.833333333333334;
46381;PMS5003;66809;52.974;-2.514;2023-04-15T03:21:43;15.516666666666667;14.7;
46381;PMS5003;66809;52.974;-2.514;2023-04-15T03:23:43;15.483333333333333;14.65;
46381;PMS5003;66809;52.974;-2.514;2023-04-15T03:25:43;15.4;14.6;
46381;PMS5003;66809;52.974;-2.514;2023-04-15T03:27:43;15.566666666666666;14.766666666666667;
46381;PMS5003;66809;52.974;-2.514;2023-04-15T03:29:44;15.766666666666667;14.966666666666667;
46381;PMS5003;66809;52.974;-2.514;2023-04-15T03:31:43;16.016666666666666;15.166666666666666;
46381;PMS5003;66809;52.974;-2.514;2023-04-15T03:33:43;16.033333333333335;15.166666666666666;
46381;PMS5003;66809;52.974;-2.514;2023-04-15T03:35:43;16.05;15.15;
46381;PMS5003;66809;52.974;-2.514;2023-04-15T03:37:43;16.166666666666668;15.266666666666667;
46381;PMS5003;66809;52.974;-2.514;2023-04-15T03:39:43;16.15;15.25;
46381;PMS5003;66809;52.974;-2.514;2023-04-15T03:41:43;16.166666666666668;15.3;
46381;PMS5003;66809;52.974;-2.514;2023-04-15T03:43:43;16.433333333333334;15.583333333333334;
46381;PMS5003;66809;52.974;-2.514;2023-04-15T03:45:44;16.75;15.866666666666667;
46381;PMS5003;66809;52.974;-2.514;2023-04-15T03:47:43;17.033333333333335;16.116666666666667;
46381;PMS5003;66809;52.974;-2.514;2023-04-15T03:49:43;17.25;16.316666666666666;
46381;PMS5003;66809;52.974;-2.514;2023-04-15T03:51:43;17.55;16.65;
46381;PMS5003;66809;52.974;-2.514;2023-04-15T03:53:43;17.883333333333333;16.916666666666668;
46381;PMS5003;66809;52.974;-2.514;2023-04-15T03:55:43;17.9;16.95;
46381;PMS5003;66809;52.974;-2.514;2023-04-15T03:57:43;17.883333333333333;16.85;
46381;PMS5003;66809;52.974;-2.514;2023-04-15T03:59:44;17.566666666666666;16.583333333333332;
46381;PMS5003;66809;52.974;-2.514;2023-04-15T04:01:43;17.516666666666666;16.516666666666666;
46381;PMS5003;66809;52.974;-2.514;2023-04-15T04:03:43;17.416666666666668;16.45;
46381;PMS5003;66809;52.974;-2.514;2023-04-15T04:05:43;17.5;16.516666666666666;
46381;PMS5003;66809;52.974;-2.514;2023-04-15T04:07:43;17.816666666666666;16.783333333333335;
46381;PMS5003;66809;52.974;-2.514;2023-04-15T04:09:43;18.05;17.033333333333335;
46381;PMS5003;66809;52.974;-2.514;2023-04-15T04:11:43;18.266666666666666;17.216666666666665;
46381;PMS5003;66809;52.974;-2.514;2023-04-15T04:13:43;18.483333333333334;17.383333333333333;
46381;PMS5003;66809;52.974;-2.514;2023-04-15T04:15:44;18.633333333333333;17.483333333333334;
46381;PMS5003;66809;52.974;-2.514;2023-04-15T04:17:43;18.65;17.466666666666665;
46381;PMS5003;66809;52.974;-2.514;2023-04-15T04:19:43;18.966666666666665;17.75;
46381;PMS5003;66809;52.974;-2.514;2023-04-15T04:21:43;19.25;18.083333333333332;
46381;PMS5003;66809;52.974;-2.514;2023-04-15T04:23:43;19.65;18.416666666666668;
46381;PMS5003;66809;52.974;-2.514;2023-04-15T04:25:43;20.183333333333334;18.883333333333333;
46381;PMS5003;66809;52.974;-2.514;2023-04-15T04:27:43;20.566666666666666;19.233333333333334;
46381;PMS5003;66809;52.974;-2.514;2023-04-15T04:29:43;20.6;19.266666666666666;
46381;PMS5003;66809;52.974;-2.514;2023-04-15T04:31:44;20.633333333333333;19.283333333333335;
46381;PMS5003;66809;52.974;-2.514;2023-04-15T04:33:43;21.05;19.616666666666667;
46381;PMS5003;66809;52.974;-2.514;2023-04-15T04:35:43;21.3;19.883333333333333;
46381;PMS5003;66809;52.974;-2.514;2023-04-15T04:37:43;21.45;20.05;
46381;PMS5003;66809;52.974;-2.514;2023-04-15T04:39:43;21.883333333333333;20.483333333333334;
46381;PMS5003;66809;52.974;-2.514;2023-04-15T04:41:43;22.233333333333334;20.8;
46381;PMS5003;66809;52.974;-2.514;2023-04-15T04:43:43;22.3;20.816666666666666;
46381;PMS5003;66809;52.974;-2.514;2023-04-15T04:45:43;22.383333333333333;20.833333333333332;
46381;PMS5003;66809;52.974;-2.514;2023-04-15T04:47:43;22.533333333333335;20.95;
46381;PMS5003;66809;52.974;-2.514;2023-04-15T04:49:43;22.766666666666666;21.183333333333334;
46381;PMS5003;66809;52.974;-2.514;2023-04-15T04:51:43;22.966666666666665;21.3;
46381;PMS5003;66809;52.974;-2.514;2023-04-15T04:53:43;23.116666666666667;21.5;
46381;PMS5003;66809;52.974;-2.514;2023-04-15T04:55:43;23.35;21.733333333333334;
46381;PMS5003;66809;52.974;-2.514;2023-04-15T04:57:43;23.466666666666665;21.933333333333334;
46381;PMS5003;66809;52.974;-2.514;2023-04-15T04:59:43;23.983333333333334;22.366666666666667;
46381;PMS5003;66809;52.974;-2.514;2023-04-15T05:01:43;24.35;22.716666666666665;
46381;PMS5003;66809;52.974;-2.514;2023-04-15T05:03:43;24.816666666666666;23.083333333333332;
46381;PMS5003;66809;52.974;-2.514;2023-04-15T05:05:44;25.05;23.3;
46381;PMS5003;66809;52.974;-2.514;2023-04-15T05:07:43;25.066666666666666;23.316666666666666;
46381;PMS5003;66809;52.974;-2.514;2023-04-15T05:09:43;25.15;23.4;
46381;PMS5003;66809;52.974;-2.514;2023-04-15T05:11:43;25.166666666666668;23.416666666666668;
46381;PMS5003;66809;52.974;-2.514;2023-04-15T05:13:43;25.15;23.466666666666665;
46381;PMS5003;66809;52.974;-2.514;2023-04-15T05:15:44;25.2;23.55;
46381;PMS5003;66809;52.974;-2.514;2023-04-15T05:17:43;25.233333333333334;23.616666666666667;
46381;PMS5003;66809;52.974;-2.514;2023-04-15T05:19:43;25.133333333333333;23.566666666666666;
46381;PMS5003;66809;52.974;-2.514;2023-04-15T05:21:43;25.1;23.533333333333335;
46381;PMS5003;66809;52.974;-2.514;2023-04-15T05:23:43;24.766666666666666;23.283333333333335;
46381;PMS5003;66809;52.974;-2.514;2023-04-15T05:25:43;24.166666666666668;22.766666666666666;
46381;PMS5003;66809;52.974;-2.514;2023-04-15T05:27:44;23.616666666666667;22.266666666666666;
46381;PMS5003;66809;52.974;-2.514;2023-04-15T05:29:43;23.666666666666668;22.3;
46381;PMS5003;66809;52.974;-2.514;2023-04-15T05:31:43;23.633333333333333;22.333333333333332;
46381;PMS5003;66809;52.974;-2.514;2023-04-15T05:33:44;23.25;22.066666666666666;
46381;PMS5003;66809;52.974;-2.514;2023-04-15T05:35:43;23.233333333333334;22.066666666666666;
46381;PMS5003;66809;52.974;-2.514;2023-04-15T05:37:43;23.133333333333333;21.933333333333334;
46381;PMS5003;66809;52.974;-2.514;2023-04-15T05:39:43;22.833333333333332;21.633333333333333;
46381;PMS5003;66809;52.974;-2.514;2023-04-15T05:41:43;22.433333333333334;21.266666666666666;
46381;PMS5003;66809;52.974;-2.514;2023-04-15T05:43:43;22.133333333333333;21.05;
46381;PMS5003;66809;52.974;-2.514;2023-04-15T05:45:43;21.833333333333332;20.833333333333332;
46381;PMS5003;66809;52.974;-2.514;2023-04-15T05:47:44;21.533333333333335;20.55;
46381;PMS5003;66809;52.974;-2.514;2023-04-15T05:49:43;21.15;20.183333333333334;
46381;PMS5003;66809;52.974;-2.514;2023-04-15T05:51:43;20.883333333333333;20.0;
46381;PMS5003;66809;52.974;-2.514;2023-04-15T05:53:43;20.666666666666668;19.766666666666666;
46381;PMS5003;66809;52.974;-2.514;2023-04-15T05:55:43;20.65;19.75;
46381;PMS5003;66809;52.974;-2.514;2023-04-15T05:57:43;20.683333333333334;19.8;
46381;PMS5003;66809;52.974;-2.514;2023-04-15T05:59:43;20.75;19.9;
46381;PMS5003;66809;52.974;-2.514;2023-04-15T06:01:43;20.9;20.016666666666666;
46381;PMS5003;66809;52.974;-2.514;2023-04-15T06:03:44;21.066666666666666;20.233333333333334;
46381;PMS5003;66809;52.974;-2.514;2023-04-15T06:05:43;21.083333333333332;20.283333333333335;
46381;PMS5003;66809;52.974;-2.514;2023-04-15T06:07:43;21.133333333333333;20.383333333333333;
46381;PMS5003;66809;52.974;-2.514;2023-04-15T06:09:43;21.183333333333334;20.45;
46381;PMS5003;66809;52.974;-2.514;2023-04-15T06:11:43;21.483333333333334;20.716666666666665;
46381;PMS5003;66809;52.974;-2.514;2023-04-15T06:13:44;21.983333333333334;21.116666666666667;
46381;PMS5003;66809;52.974;-2.514;2023-04-15T06:15:43;22.25;21.316666666666666;
46381;PMS5003;66809;52.974;-2.514;2023-04-15T06:17:43;22.35;21.383333333333333;
46381;PMS5003;66809;52.974;-2.514;2023-04-15T06:19:43;22.533333333333335;21.55;
46381;PMS5003;66809;52.974;-2.514;2023-04-15T06:21:43;22.633333333333333;21.666666666666668;
46381;PMS5003;66809;52.974;-2.514;2023-04-15T06:23:43;23.1;22.116666666666667;
46381;PMS5003;66809;52.974;-2.514;2023-04-15T06:25:44;23.5;22.466666666666665;
46381;PMS5003;66809;52.974;-2.514;2023-04-15T06:27:43;24.083333333333332;22.866666666666667;
46381;PMS5003;66809;52.974;-2.514;2023-04-15T06:29:43;24.283333333333335;23.05;
46381;PMS5003;66809;52.974;-2.514;2023-04-15T06:31:43;24.416666666666668;23.15;
46381;PMS5003;66809;52.974;-2.514;2023-04-15T06:33:43;24.8;23.516666666666666;
46381;PMS5003;66809;52.974;-2.514;2023-04-15T06:35:43;24.933333333333334;23.583333333333332;
46381;PMS5003;66809;52.974;-2.514;2023-04-15T06:37:43;25.333333333333332;23.966666666666665;
46381;PMS5003;66809;52.974;-2.514;2023-04-15T06:39:43;25.85;24.483333333333334;
46381;PMS5003;66809;52.974;-2.514;2023-04-15T06:41:44;26.683333333333334;25.283333333333335;
46381;PMS5003;66809;52.974;-2.514;2023-04-15T06:43:43;27.216666666666665;25.75;
46381;PMS5003;66809;52.974;-2.514;2023-04-15T06:45:43;27.6;26.15;
46381;PMS5003;66809;52.974;-2.514;2023-04-15T06:47:44;28.166666666666668;26.75;
46381;PMS5003;66809;52.974;-2.514;2023-04-15T06:49:43;28.683333333333334;27.283333333333335;
46381;PMS5003;66809;52.974;-2.514;2023-04-15T06:51:43;29.25;27.733333333333334;
46381;PMS5003;66809;52.974;-2.514;2023-04-15T06:53:43;29.583333333333332;28.066666666666666;
46381;PMS5003;66809;52.974;-2.514;2023-04-15T06:55:43;29.916666666666668;28.4;
46381;PMS5003;66809;52.974;-2.514;2023-04-15T06:57:43;30.233333333333334;28.683333333333334;
46381;PMS5003;66809;52.974;-2.514;2023-04-15T06:59:43;30.35;28.816666666666666;
46381;PMS5003;66809;52.974;-2.514;2023-04-15T07:01:43;30.333333333333332;28.8;
46381;PMS5003;66809;52.974;-2.514;2023-04-15T07:03:43;30.266666666666666;28.683333333333334;
46381;PMS5003;66809;52.974;-2.514;2023-04-15T07:05:43;30.5;28.866666666666667;
46381;PMS5003;66809;52.974;-2.514;2023-04-15T07:07:43;30.95;29.25;
46381;PMS5003;66809;52.974;-2.514;2023-04-15T07:09:44;31.033333333333335;29.266666666666666;
46381;PMS5003;66809;52.974;-2.514;2023-04-15T07:11:43;31.366666666666667;29.583333333333332;
46381;PMS5003;66809;52.974;-2.514;2023-04-15T07:13:43;31.233333333333334;29.55;
46381;PMS5003;66809;52.974;-2.514;2023-04-15T07:15:43;31.216666666666665;29.566666666666666;
46381;PMS5003;66809;52.974;-2.514;2023-04-15T07:17:43;31.683333333333334;29.983333333333334;
46381;PMS5003;66809;52.974;-2.514;2023-04-15T07:19:43;32.06666666666667;30.283333333333335;
46381;PMS5003;66809;52.974;-2.514;2023-04-15T07:21:43;32.333333333333336;30.483333333333334;
46381;PMS5003;66809;52.974;-2.514;2023-04-15T07:23:43;32.46666666666667;30.616666666666667;
46381;PMS5003;66809;52.974;-2.514;2023-04-15T07:25:43;32.483333333333334;30.666666666666668;
46381;PMS5003;66809;52.974;-2.514;2023-04-15T07:27:44;32.28333333333333;30.616666666666667;
46381;PMS5003;66809;52.974;-2.514;2023-04-15T07:29:43;32.46666666666667;30.75;
46381;PMS5003;66809;52.974;-2.514;2023-04-15T07:31:43;32.63333333333333;30.883333333333333;
46381;PMS5003;66809;52.974;-2.514;2023-04-15T07:33:44;32.95;31.183333333333334;
46381;PMS5003;66809;52.974;-2.514;2023-04-15T07:35:43;33.36666666666667;31.633333333333333;
46381;PMS5003;66809;52.974;-2.514;2023-04-15T07:37:43;33.43333333333333;31.733333333333334;
46381;PMS5003;66809;52.974;-2.514;2023-04-15T07:39:43;33.583333333333336;31.816666666666666;
46381;PMS5003;66809;52.974;-2.514;2023-04-15T07:41:43;33.35;31.566666666666666;
46381;PMS5003;66809;52.974;-2.514;2023-04-15T07:43:43;33.266666666666666;31.55;
46381;PMS5003;66809;52.974;-2.514;2023-04-15T07:45:44;33.46666666666667;31.683333333333334;
46381;PMS5003;66809;52.974;-2.514;2023-04-15T07:47:43;33.31666666666667;31.5;
46381;PMS5003;66809;52.974;-2.514;2023-04-15T07:49:43;33.35;31.5;
46381;PMS5003;66809;52.974;-2.514;2023-04-15T07:51:43;33.21666666666667;31.316666666666666;
46381;PMS5003;66809;52.974;-2.514;2023-04-15T07:53:43;33.3;31.383333333333333;
46381;PMS5003;66809;52.974;-2.514;2023-04-15T07:55:44;33.55;31.583333333333332;
46381;PMS5003;66809;52.974;-2.514;2023-04-15T07:57:43;33.75;31.783333333333335;
46381;PMS5003;66809;52.974;-2.514;2023-04-15T07:59:43;33.81666666666667;31.866666666666667;
46381;PMS5003;66809;52.974;-2.514;2023-04-15T08:01:43;33.95;32.06666666666667;
46381;PMS5003;66809;52.974;-2.514;2023-04-15T08:03:44;34.233333333333334;32.38333333333333;
46381;PMS5003;66809;52.974;-2.514;2023-04-15T08:05:43;34.15;32.35;
46381;PMS5003;66809;52.974;-2.514;2023-04-15T08:07:43;34.233333333333334;32.38333333333333;
46381;PMS5003;66809;52.974;-2.514;2023-04-15T08:09:43;34.85;33.016666666666666;
46381;PMS5003;66809;52.974;-2.514;2023-04-15T08:11:43;34.93333333333333;33.083333333333336;
46381;PMS5003;66809;52.974;-2.514;2023-04-15T08:13:43;35.016666666666666;33.083333333333336;
46381;PMS5003;66809;52.974;-2.514;2023-04-15T08:15:44;35.28333333333333;33.36666666666667;
46381;PMS5003;66809;52.974;-2.514;2023-04-15T08:17:43;35.53333333333333;33.6;
46381;PMS5003;66809;52.974;-2.514;2023-04-15T08:19:43;35.56666666666667;33.666666666666664;
46381;PMS5003;66809;52.974;-2.514;2023-04-15T08:21:43;35.516666666666666;33.65;
46381;PMS5003;66809;52.974;-2.514;2023-04-15T08:23:43;35.63333333333333;33.75;
46381;PMS5003;66809;52.974;-2.514;2023-04-15T08:25:44;36.03333333333333;34.016666666666666;
46381;PMS5003;66809;52.974;-2.514;2023-04-15T08:27:43;36.63333333333333;34.45;
46381;PMS5003;66809;52.974;-2.514;2023-04-15T08:29:43;36.483333333333334;34.28333333333333;
46381;PMS5003;66809;52.974;-2.514;2023-04-15T08:31:44;36.5;34.3;
46381;PMS5003;66809;52.974;-2.514;2023-04-15T08:33:43;36.21666666666667;34.0;
46381;PMS5003;66809;52.974;-2.514;2023-04-15T08:35:45;35.88333333333333;33.7;
46381;PMS5003;66809;52.974;-2.514;2023-04-15T08:37:43;35.95;33.68333333333333;
46381;PMS5003;66809;52.974;-2.514;2023-04-15T08:39:44;35.7;33.45;
46381;PMS5003;66809;52.974;-2.514;2023-04-15T08:41:45;35.8;33.56666666666667;
46381;PMS5003;66809;52.974;-2.514;2023-04-15T08:43:45;36.0;33.68333333333333;
46381;PMS5003;66809;52.974;-2.514;2023-04-15T08:45:43;35.9;33.63333333333333;
46381;PMS5003;66809;52.974;-2.514;2023-04-15T08:47:43;36.1;33.86666666666667;
46381;PMS5003;66809;52.974;-2.514;2023-04-15T08:49:44;36.13333333333333;33.88333333333333;
46381;PMS5003;66809;52.974;-2.514;2023-04-15T08:51:43;36.25;34.06666666666667;
46381;PMS5003;66809;52.974;-2.514;2023-04-15T08:53:44;36.15;33.96666666666667;
46381;PMS5003;66809;52.974;-2.514;2023-04-15T08:55:44;35.916666666666664;33.8;
46381;PMS5003;66809;52.974;-2.514;2023-04-15T08:57:43;35.7;33.56666666666667;
46381;PMS5003;66809;52.974;-2.514;2023-04-15T08:59:43;35.61666666666667;33.43333333333333;
46381;PMS5003;66809;52.974;-2.514;2023-04-15T09:01:43;35.5;33.25;
46381;PMS5003;66809;52.974;-2.514;2023-04-15T09:03:43;35.31666666666667;33.06666666666667;
46381;PMS5003;66809;52.974;-2.514;2023-04-15T09:05:43;35.43333333333333;33.15;
46381;PMS5003;66809;52.974;-2.514;2023-04-15T09:07:43;35.13333333333333;32.93333333333333;
46381;PMS5003;66809;52.974;-2.514;2023-04-15T09:09:43;34.5;32.28333333333333;
46381;PMS5003;66809;52.974;-2.514;2023-04-15T09:11:44;34.13333333333333;31.983333333333334;
46381;PMS5003;66809;52.974;-2.514;2023-04-15T09:13:43;33.666666666666664;31.566666666666666;
46381;PMS5003;66809;52.974;-2.514;2023-04-15T09:15:43;33.3;31.15;
46381;PMS5003;66809;52.974;-2.514;2023-04-15T09:17:44;32.86666666666667;30.65;
46381;PMS5003;66809;52.974;-2.514;2023-04-15T09:19:43;32.483333333333334;30.333333333333332;
46381;PMS5003;66809;52.974;-2.514;2023-04-15T09:21:46;32.28333333333333;30.166666666666668;
46381;PMS5003;66809;52.974;-2.514;2023-04-15T09:23:53;31.883333333333333;29.8;
46381;PMS5003;66809;52.974;-2.514;2023-04-15T09:25:44;31.466666666666665;29.483333333333334;